Sao Paulo de Olivenca, Brazil
Current Conditions -  °F | °C
As of 7:00 PM on Wednesday 17 Dec 2014 (Local Time) from SKLT Reporting Station
Few Clouds Few Clouds  
Wind Chill: 86°   Ceiling: Unl
Heat Index: 102°   Visibility: 6mi
Dew Point: 81°   Wind: 0mph
Humidity: 84%   Direction: NA
Pressure: 29.72"   Gusts: NA
Location:  3.38°S, 68.87°W
Report Text: SKLT 172300Z 00000KT 9999 FEW020 30/27 A2972
Loading
Personal Weather Stations






























Interactive Weather Map New forecast layout! Learn more

10-Day Weather Forecast

Advertisements
Track Severe Weather on mobile